sensor_id;sensor_type;location;lat;lon;timestamp;pressure;altitude;pressure_sealevel;temperature;humidity
14120;BME280;7138;49.246;9.100;2023-05-23T00:00:40;98469.13;;;20.86;94.76
14120;BME280;7138;49.246;9.100;2023-05-23T00:03:06;98466.91;;;20.77;95.71
14120;BME280;7138;49.246;9.100;2023-05-23T00:05:33;98471.66;;;20.68;95.70
14120;BME280;7138;49.246;9.100;2023-05-23T00:08:00;98464.91;;;20.63;96.15
14120;BME280;7138;49.246;9.100;2023-05-23T00:10:26;98464.91;;;20.63;96.19
14120;BME280;7138;49.246;9.100;2023-05-23T00:12:52;98462.56;;;20.57;96.59
14120;BME280;7138;49.246;9.100;2023-05-23T00:15:18;98457.63;;;20.49;97.47
14120;BME280;7138;49.246;9.100;2023-05-23T00:17:44;98468.22;;;20.48;97.52
14120;BME280;7138;49.246;9.100;2023-05-23T00:20:11;98466.72;;;20.42;97.26
14120;BME280;7138;49.246;9.100;2023-05-23T00:22:38;98479.06;;;20.40;97.86
14120;BME280;7138;49.246;9.100;2023-05-23T00:25:09;98476.50;;;20.39;97.71
14120;BME280;7138;49.246;9.100;2023-05-23T00:27:35;98480.03;;;20.38;97.94
14120;BME280;7138;49.246;9.100;2023-05-23T00:30:02;98481.03;;;20.35;98.31
14120;BME280;7138;49.246;9.100;2023-05-23T00:32:28;98483.66;;;20.35;97.89
14120;BME280;7138;49.246;9.100;2023-05-23T00:34:53;98490.75;;;20.33;98.14
14120;BME280;7138;49.246;9.100;2023-05-23T00:37:20;98498.56;;;20.35;97.65
14120;BME280;7138;49.246;9.100;2023-05-23T00:39:47;98492.44;;;20.34;97.48
14120;BME280;7138;49.246;9.100;2023-05-23T00:42:14;98497.69;;;20.34;97.65
14120;BME280;7138;49.246;9.100;2023-05-23T00:44:40;98494.59;;;20.25;98.32
14120;BME280;7138;49.246;9.100;2023-05-23T00:47:07;98498.16;;;20.24;98.44
14120;BME280;7138;49.246;9.100;2023-05-23T00:49:33;98489.53;;;20.20;98.55
14120;BME280;7138;49.246;9.100;2023-05-23T00:52:00;98489.59;;;20.18;98.36
14120;BME280;7138;49.246;9.100;2023-05-23T00:54:29;98481.28;;;20.09;98.94
14120;BME280;7138;49.246;9.100;2023-05-23T00:56:58;98492.56;;;20.11;98.75
14120;BME280;7138;49.246;9.100;2023-05-23T00:59:26;98490.06;;;20.08;99.71
14120;BME280;7138;49.246;9.100;2023-05-23T01:01:56;98496.59;;;19.98;100.00
14120;BME280;7138;49.246;9.100;2023-05-23T01:04:22;98506.88;;;19.82;100.00
14120;BME280;7138;49.246;9.100;2023-05-23T01:06:51;98498.22;;;19.80;100.00
14120;BME280;7138;49.246;9.100;2023-05-23T01:09:18;98500.69;;;19.85;100.00
14120;BME280;7138;49.246;9.100;2023-05-23T01:11:54;98501.31;;;19.90;100.00
14120;BME280;7138;49.246;9.100;2023-05-23T01:14:32;98498.63;;;19.91;100.00
14120;BME280;7138;49.246;9.100;2023-05-23T01:17:06;98498.69;;;19.90;100.00
14120;BME280;7138;49.246;9.100;2023-05-23T01:19:57;98488.00;;;19.94;100.00
14120;BME280;7138;49.246;9.100;2023-05-23T01:22:37;98485.31;;;19.96;100.00
14120;BME280;7138;49.246;9.100;2023-05-23T01:25:26;98480.84;;;19.98;100.00
14120;BME280;7138;49.246;9.100;2023-05-23T01:27:59;98487.09;;;19.95;100.00
14120;BME280;7138;49.246;9.100;2023-05-23T01:30:30;98487.09;;;19.95;100.00
14120;BME280;7138;49.246;9.100;2023-05-23T01:32:58;98483.00;;;19.88;100.00
14120;BME280;7138;49.246;9.100;2023-05-23T01:35:26;98491.59;;;19.92;100.00
14120;BME280;7138;49.246;9.100;2023-05-23T01:37:52;98486.69;;;19.84;100.00
14120;BME280;7138;49.246;9.100;2023-05-23T01:40:19;98494.81;;;19.78;100.00
14120;BME280;7138;49.246;9.100;2023-05-23T01:42:45;98495.81;;;19.76;100.00
14120;BME280;7138;49.246;9.100;2023-05-23T01:45:14;98495.97;;;19.71;100.00
14120;BME280;7138;49.246;9.100;2023-05-23T01:47:41;98501.31;;;19.70;100.00
14120;BME280;7138;49.246;9.100;2023-05-23T01:50:09;98497.13;;;19.64;100.00
14120;BME280;7138;49.246;9.100;2023-05-23T01:52:36;98506.19;;;19.57;100.00
14120;BME280;7138;49.246;9.100;2023-05-23T01:55:05;98503.84;;;19.49;100.00
14120;BME280;7138;49.246;9.100;2023-05-23T01:57:35;98509.03;;;19.51;100.00
14120;BME280;7138;49.246;9.100;2023-05-23T02:00:06;98511.84;;;19.46;100.00
14120;BME280;7138;49.246;9.100;2023-05-23T02:02:34;98516.50;;;19.38;100.00
14120;BME280;7138;49.246;9.100;2023-05-23T02:05:00;98515.63;;;19.39;100.00
14120;BME280;7138;49.246;9.100;2023-05-23T02:07:26;98519.94;;;19.40;100.00
14120;BME280;7138;49.246;9.100;2023-05-23T02:09:52;98520.88;;;19.39;100.00
14120;BME280;7138;49.246;9.100;2023-05-23T02:12:17;98526.91;;;19.41;100.00
14120;BME280;7138;49.246;9.100;2023-05-23T02:14:43;98535.72;;;19.39;100.00
14120;BME280;7138;49.246;9.100;2023-05-23T02:17:09;98521.75;;;19.38;100.00
14120;BME280;7138;49.246;9.100;2023-05-23T02:19:36;98520.94;;;19.36;100.00
14120;BME280;7138;49.246;9.100;2023-05-23T02:22:02;98529.63;;;19.38;100.00
14120;BME280;7138;49.246;9.100;2023-05-23T02:24:28;98529.63;;;19.38;100.00
14120;BME280;7138;49.246;9.100;2023-05-23T02:26:54;98527.84;;;19.39;100.00
14120;BME280;7138;49.246;9.100;2023-05-23T02:29:20;98534.97;;;19.35;100.00
14120;BME280;7138;49.246;9.100;2023-05-23T02:31:46;98536.78;;;19.33;100.00
14120;BME280;7138;49.246;9.100;2023-05-23T02:34:12;98533.34;;;19.33;100.00
14120;BME280;7138;49.246;9.100;2023-05-23T02:36:39;98534.41;;;19.27;100.00
14120;BME280;7138;49.246;9.100;2023-05-23T02:39:05;98537.84;;;19.29;100.00
14120;BME280;7138;49.246;9.100;2023-05-23T02:41:31;98546.50;;;19.31;100.00
14120;BME280;7138;49.246;9.100;2023-05-23T02:43:57;98543.97;;;19.28;100.00
14120;BME280;7138;49.246;9.100;2023-05-23T02:46:23;98541.25;;;19.31;100.00
14120;BME280;7138;49.246;9.100;2023-05-23T02:48:49;98549.00;;;19.34;100.00
14120;BME280;7138;49.246;9.100;2023-05-23T02:51:15;98545.50;;;19.34;100.00
14120;BME280;7138;49.246;9.100;2023-05-23T02:53:42;98554.25;;;19.34;100.00
14120;BME280;7138;49.246;9.100;2023-05-23T02:56:08;98547.16;;;19.36;100.00
14120;BME280;7138;49.246;9.100;2023-05-23T02:58:34;98552.41;;;19.36;100.00
14120;BME280;7138;49.246;9.100;2023-05-23T03:01:01;98550.59;;;19.38;100.00
14120;BME280;7138;49.246;9.100;2023-05-23T03:03:27;98548.84;;;19.39;100.00
14120;BME280;7138;49.246;9.100;2023-05-23T03:05:55;98540.91;;;19.40;100.00
14120;BME280;7138;49.246;9.100;2023-05-23T03:08:20;98533.00;;;19.42;100.00
14120;BME280;7138;49.246;9.100;2023-05-23T03:10:48;98542.53;;;19.44;100.00
14120;BME280;7138;49.246;9.100;2023-05-23T03:13:13;98543.31;;;19.46;100.00
14120;BME280;7138;49.246;9.100;2023-05-23T03:15:39;98540.69;;;19.46;100.00
14120;BME280;7138;49.246;9.100;2023-05-23T03:18:05;98543.25;;;19.48;100.00
14120;BME280;7138;49.246;9.100;2023-05-23T03:20:31;98537.16;;;19.47;100.00
14120;BME280;7138;49.246;9.100;2023-05-23T03:22:57;98541.53;;;19.47;100.00
14120;BME280;7138;49.246;9.100;2023-05-23T03:25:22;98551.13;;;19.48;100.00
14120;BME280;7138;49.246;9.100;2023-05-23T03:27:50;98552.91;;;19.47;100.00
14120;BME280;7138;49.246;9.100;2023-05-23T03:30:16;98552.13;;;19.45;100.00
14120;BME280;7138;49.246;9.100;2023-05-23T03:32:41;98559.97;;;19.45;100.00
14120;BME280;7138;49.246;9.100;2023-05-23T03:35:08;98560.75;;;19.47;100.00
14120;BME280;7138;49.246;9.100;2023-05-23T03:37:34;98564.19;;;19.49;100.00
14120;BME280;7138;49.246;9.100;2023-05-23T03:40:00;98563.28;;;19.50;100.00
14120;BME280;7138;49.246;9.100;2023-05-23T03:42:27;98567.63;;;19.51;100.00
14120;BME280;7138;49.246;9.100;2023-05-23T03:44:54;98574.53;;;19.52;100.00
14120;BME280;7138;49.246;9.100;2023-05-23T03:47:20;98570.25;;;19.51;100.00
14120;BME280;7138;49.246;9.100;2023-05-23T03:49:46;98575.47;;;19.51;100.00
14120;BME280;7138;49.246;9.100;2023-05-23T03:52:12;98585.97;;;19.51;100.00
14120;BME280;7138;49.246;9.100;2023-05-23T03:54:37;98579.88;;;19.51;100.00
14120;BME280;7138;49.246;9.100;2023-05-23T03:57:04;98579.88;;;19.51;100.00
14120;BME280;7138;49.246;9.100;2023-05-23T03:59:29;98580.66;;;19.53;100.00
14120;BME280;7138;49.246;9.100;2023-05-23T04:01:57;98580.50;;;19.57;100.00
14120;BME280;7138;49.246;9.100;2023-05-23T04:04:23;98572.66;;;19.56;100.00
14120;BME280;7138;49.246;9.100;2023-05-23T04:06:50;98580.38;;;19.60;100.00
14120;BME280;7138;49.246;9.100;2023-05-23T04:09:16;98583.78;;;19.62;100.00
14120;BME280;7138;49.246;9.100;2023-05-23T04:11:42;98577.63;;;19.63;100.00
14120;BME280;7138;49.246;9.100;2023-05-23T04:14:08;98582.81;;;19.65;100.00
14120;BME280;7138;49.246;9.100;2023-05-23T04:16:36;98581.28;;;19.59;100.00
14120;BME280;7138;49.246;9.100;2023-05-23T04:19:04;98588.41;;;19.56;100.00
14120;BME280;7138;49.246;9.100;2023-05-23T04:21:30;98592.75;;;19.57;100.00
14120;BME280;7138;49.246;9.100;2023-05-23T04:23:56;98595.38;;;19.57;100.00
14120;BME280;7138;49.246;9.100;2023-05-23T04:26:22;98597.00;;;19.59;100.00
14120;BME280;7138;49.246;9.100;2023-05-23T04:28:49;98596.13;;;19.60;100.00
14120;BME280;7138;49.246;9.100;2023-05-23T04:31:19;98584.13;;;19.53;100.00
14120;BME280;7138;49.246;9.100;2023-05-23T04:33:44;98594.28;;;19.62;100.00
14120;BME280;7138;49.246;9.100;2023-05-23T04:36:12;98590.63;;;19.67;100.00
14120;BME280;7138;49.246;9.100;2023-05-23T04:38:37;98589.56;;;19.71;100.00
14120;BME280;7138;49.246;9.100;2023-05-23T04:41:06;98592.94;;;19.74;100.00
14120;BME280;7138;49.246;9.100;2023-05-23T04:43:34;98588.56;;;19.75;100.00
14120;BME280;7138;49.246;9.100;2023-05-23T04:46:01;98595.53;;;19.76;100.00
14120;BME280;7138;49.246;9.100;2023-05-23T04:48:28;98587.66;;;19.76;100.00
14120;BME280;7138;49.246;9.100;2023-05-23T04:50:54;98597.91;;;19.82;99.74
14120;BME280;7138;49.246;9.100;2023-05-23T04:53:22;98598.81;;;19.81;99.82
14120;BME280;7138;49.246;9.100;2023-05-23T04:55:48;98601.97;;;19.89;99.71
14120;BME280;7138;49.246;9.100;2023-05-23T04:58:14;98602.59;;;19.95;99.12
14120;BME280;7138;49.246;9.100;2023-05-23T05:00:39;98601.44;;;20.02;98.85
14120;BME280;7138;49.246;9.100;2023-05-23T05:03:05;98608.22;;;20.08;98.95
14120;BME280;7138;49.246;9.100;2023-05-23T05:05:34;98605.22;;;20.17;98.51
14120;BME280;7138;49.246;9.100;2023-05-23T05:08:00;98603.03;;;20.28;98.39
14120;BME280;7138;49.246;9.100;2023-05-23T05:10:27;98598.00;;;20.44;97.89
14120;BME280;7138;49.246;9.100;2023-05-23T05:12:53;98591.34;;;20.55;96.84
14120;BME280;7138;49.246;9.100;2023-05-23T05:15:18;98581.06;;;20.51;96.39
14120;BME280;7138;49.246;9.100;2023-05-23T05:17:44;98596.50;;;20.79;96.72
14120;BME280;7138;49.246;9.100;2023-05-23T05:20:11;98602.31;;;21.05;95.75
14120;BME280;7138;49.246;9.100;2023-05-23T05:22:37;98608.13;;;21.32;94.37
14120;BME280;7138;49.246;9.100;2023-05-23T05:25:09;98605.28;;;21.55;93.13
14120;BME280;7138;49.246;9.100;2023-05-23T05:27:37;98604.66;;;21.88;92.47
14120;BME280;7138;49.246;9.100;2023-05-23T05:30:06;98606.41;;;22.24;91.60
14120;BME280;7138;49.246;9.100;2023-05-23T05:32:32;98613.88;;;22.68;90.25
14120;BME280;7138;49.246;9.100;2023-05-23T05:34:58;98612.94;;;23.03;87.91
14120;BME280;7138;49.246;9.100;2023-05-23T05:37:24;98615.84;;;23.31;86.19
14120;BME280;7138;49.246;9.100;2023-05-23T05:39:50;98620.22;;;23.48;84.84
14120;BME280;7138;49.246;9.100;2023-05-23T05:42:16;98624.81;;;23.45;84.30
14120;BME280;7138;49.246;9.100;2023-05-23T05:44:43;98623.28;;;23.41;83.81
14120;BME280;7138;49.246;9.100;2023-05-23T05:47:09;98630.56;;;23.35;84.61
14120;BME280;7138;49.246;9.100;2023-05-23T05:49:34;98627.16;;;23.33;84.32
14120;BME280;7138;49.246;9.100;2023-05-23T05:52:00;98626.22;;;23.34;84.19
14120;BME280;7138;49.246;9.100;2023-05-23T05:54:26;98641.38;;;23.31;83.70
14120;BME280;7138;49.246;9.100;2023-05-23T05:56:53;98641.06;;;23.20;83.93
14120;BME280;7138;49.246;9.100;2023-05-23T05:59:19;98638.69;;;23.15;84.22
14120;BME280;7138;49.246;9.100;2023-05-23T06:01:46;98640.66;;;22.95;83.56
14120;BME280;7138;49.246;9.100;2023-05-23T06:04:12;98644.91;;;22.80;84.29
14120;BME280;7138;49.246;9.100;2023-05-23T06:06:38;98655.41;;;22.63;83.97
14120;BME280;7138;49.246;9.100;2023-05-23T06:09:04;98655.56;;;22.60;85.23
14120;BME280;7138;49.246;9.100;2023-05-23T06:11:30;98649.75;;;22.53;84.87
14120;BME280;7138;49.246;9.100;2023-05-23T06:13:56;98657.41;;;22.41;84.23
14120;BME280;7138;49.246;9.100;2023-05-23T06:16:22;98662.44;;;22.28;85.42
14120;BME280;7138;49.246;9.100;2023-05-23T06:18:49;98662.50;;;22.26;85.53
14120;BME280;7138;49.246;9.100;2023-05-23T06:21:15;98663.34;;;22.27;85.71
14120;BME280;7138;49.246;9.100;2023-05-23T06:23:40;98662.66;;;22.05;84.99
14120;BME280;7138;49.246;9.100;2023-05-23T06:26:06;98678.00;;;21.97;85.75
14120;BME280;7138;49.246;9.100;2023-05-23T06:28:36;98673.00;;;21.91;85.74
14120;BME280;7138;49.246;9.100;2023-05-23T06:31:02;98675.56;;;21.92;87.04
14120;BME280;7138;49.246;9.100;2023-05-23T06:33:28;98673.63;;;21.96;88.27
14120;BME280;7138;49.246;9.100;2023-05-23T06:35:55;98674.16;;;22.04;87.84
14120;BME280;7138;49.246;9.100;2023-05-23T06:38:21;98680.91;;;22.09;86.30
14120;BME280;7138;49.246;9.100;2023-05-23T06:40:47;98675.94;;;22.03;84.87
14120;BME280;7138;49.246;9.100;2023-05-23T06:43:13;98693.41;;;22.04;85.45
14120;BME280;7138;49.246;9.100;2023-05-23T06:45:39;98687.72;;;21.76;84.49
14120;BME280;7138;49.246;9.100;2023-05-23T06:48:05;98688.25;;;21.45;84.79
14120;BME280;7138;49.246;9.100;2023-05-23T06:50:31;98696.94;;;21.27;85.82
14120;BME280;7138;49.246;9.100;2023-05-23T06:52:58;98690.44;;;21.15;85.87
14120;BME280;7138;49.246;9.100;2023-05-23T06:55:24;98698.63;;;21.08;86.46
14120;BME280;7138;49.246;9.100;2023-05-23T06:57:49;98709.47;;;21.00;86.42
14120;BME280;7138;49.246;9.100;2023-05-23T07:00:17;98703.63;;;20.94;86.01
14120;BME280;7138;49.246;9.100;2023-05-23T07:02:43;98705.53;;;20.90;86.36
14120;BME280;7138;49.246;9.100;2023-05-23T07:05:16;98715.00;;;20.94;86.66
14120;BME280;7138;49.246;9.100;2023-05-23T07:07:42;98708.66;;;20.98;86.55
14120;BME280;7138;49.246;9.100;2023-05-23T07:10:10;98712.41;;;20.93;85.95
14120;BME280;7138;49.246;9.100;2023-05-23T07:12:36;98717.19;;;20.83;85.48
14120;BME280;7138;49.246;9.100;2023-05-23T07:15:03;98717.91;;;20.66;85.02
14120;BME280;7138;49.246;9.100;2023-05-23T07:17:29;98725.59;;;20.49;86.05
14120;BME280;7138;49.246;9.100;2023-05-23T07:19:55;98724.88;;;20.46;85.87
14120;BME280;7138;49.246;9.100;2023-05-23T07:22:21;98727.19;;;20.32;85.66
14120;BME280;7138;49.246;9.100;2023-05-23T07:24:46;98737.94;;;20.26;85.91
14120;BME280;7138;49.246;9.100;2023-05-23T07:27:14;98735.69;;;20.38;86.16
14120;BME280;7138;49.246;9.100;2023-05-23T07:29:40;98739.34;;;20.34;86.13
14120;BME280;7138;49.246;9.100;2023-05-23T07:32:06;98746.19;;;20.38;86.87
14120;BME280;7138;49.246;9.100;2023-05-23T07:34:31;98744.06;;;20.25;86.12
14120;BME280;7138;49.246;9.100;2023-05-23T07:36:57;98751.63;;;20.34;86.14
14120;BME280;7138;49.246;9.100;2023-05-23T07:39:23;98759.69;;;20.29;86.20
14120;BME280;7138;49.246;9.100;2023-05-23T07:41:50;98757.97;;;20.28;85.94
14120;BME280;7138;49.246;9.100;2023-05-23T07:44:18;98762.91;;;20.12;84.60
14120;BME280;7138;49.246;9.100;2023-05-23T07:46:44;98765.75;;;20.08;84.99
14120;BME280;7138;49.246;9.100;2023-05-23T07:49:10;98757.66;;;20.12;85.49
14120;BME280;7138;49.246;9.100;2023-05-23T07:51:36;98766.16;;;20.19;85.66
14120;BME280;7138;49.246;9.100;2023-05-23T07:54:02;98767.09;;;20.18;85.15
14120;BME280;7138;49.246;9.100;2023-05-23T07:56:28;98772.38;;;20.18;85.17
14120;BME280;7138;49.246;9.100;2023-05-23T07:58:54;98765.75;;;20.08;84.40
14120;BME280;7138;49.246;9.100;2023-05-23T08:01:21;98773.31;;;20.15;85.48
14120;BME280;7138;49.246;9.100;2023-05-23T08:03:47;98765.16;;;20.23;84.71
14120;BME280;7138;49.246;9.100;2023-05-23T08:06:13;98768.56;;;20.25;84.44
14120;BME280;7138;49.246;9.100;2023-05-23T08:08:38;98770.41;;;20.23;84.34
14120;BME280;7138;49.246;9.100;2023-05-23T08:11:04;98775.22;;;20.12;83.81
14120;BME280;7138;49.246;9.100;2023-05-23T08:13:30;98773.78;;;20.03;85.16
14120;BME280;7138;49.246;9.100;2023-05-23T08:15:56;98779.38;;;19.94;83.71
14120;BME280;7138;49.246;9.100;2023-05-23T08:18:23;98781.94;;;19.96;84.56
14120;BME280;7138;49.246;9.100;2023-05-23T08:20:49;98780.34;;;19.92;84.27
14120;BME280;7138;49.246;9.100;2023-05-23T08:23:15;98774.97;;;19.95;84.11
14120;BME280;7138;49.246;9.100;2023-05-23T08:25:42;98779.22;;;19.99;84.75
14120;BME280;7138;49.246;9.100;2023-05-23T08:28:08;98781.16;;;19.94;83.37
14120;BME280;7138;49.246;9.100;2023-05-23T08:30:34;98795.00;;;19.97;83.61
14120;BME280;7138;49.246;9.100;2023-05-23T08:33:01;98800.13;;;20.00;83.29
14120;BME280;7138;49.246;9.100;2023-05-23T08:35:30;98798.09;;;20.08;83.06
14120;BME280;7138;49.246;9.100;2023-05-23T08:38:01;98790.50;;;20.01;83.52
14120;BME280;7138;49.246;9.100;2023-05-23T08:40:29;98791.09;;;20.09;83.73
14120;BME280;7138;49.246;9.100;2023-05-23T08:42:56;98795.53;;;20.07;83.75
14120;BME280;7138;49.246;9.100;2023-05-23T08:45:21;98804.94;;;20.12;84.52
14120;BME280;7138;49.246;9.100;2023-05-23T08:47:51;98795.28;;;20.13;82.72
14120;BME280;7138;49.246;9.100;2023-05-23T08:50:17;98803.25;;;20.11;82.41
14120;BME280;7138;49.246;9.100;2023-05-23T08:52:52;98799.44;;;20.18;82.10
14120;BME280;7138;49.246;9.100;2023-05-23T08:55:20;98808.91;;;20.24;82.00
14120;BME280;7138;49.246;9.100;2023-05-23T08:57:46;98806.97;;;20.29;82.69
14120;BME280;7138;49.246;9.100;2023-05-23T09:00:14;98795.38;;;20.35;81.32
14120;BME280;7138;49.246;9.100;2023-05-23T09:02:43;98795.13;;;20.41;83.03
14120;BME280;7138;49.246;9.100;2023-05-23T09:05:09;98811.25;;;20.32;80.96
14120;BME280;7138;49.246;9.100;2023-05-23T09:07:35;98811.25;;;20.32;80.30
14120;BME280;7138;49.246;9.100;2023-05-23T09:10:05;98816.50;;;20.32;82.90
14120;BME280;7138;49.246;9.100;2023-05-23T09:12:32;98813.00;;;20.31;80.59
14120;BME280;7138;49.246;9.100;2023-05-23T09:14:58;98814.44;;;20.40;80.93
14120;BME280;7138;49.246;9.100;2023-05-23T09:17:24;98818.03;;;20.37;80.78
14120;BME280;7138;49.246;9.100;2023-05-23T09:19:50;98816.09;;;20.42;79.98
14120;BME280;7138;49.246;9.100;2023-05-23T09:22:22;98811.75;;;20.41;79.09
14120;BME280;7138;49.246;9.100;2023-05-23T09:24:49;98810.41;;;20.53;80.61
14120;BME280;7138;49.246;9.100;2023-05-23T09:27:18;98810.25;;;20.57;78.55
14120;BME280;7138;49.246;9.100;2023-05-23T09:29:44;98818.72;;;20.64;78.97
14120;BME280;7138;49.246;9.100;2023-05-23T09:32:12;98808.72;;;20.73;79.60
14120;BME280;7138;49.246;9.100;2023-05-23T09:34:42;98813.25;;;20.70;77.44
14120;BME280;7138;49.246;9.100;2023-05-23T09:37:19;98813.84;;;20.55;77.70
14120;BME280;7138;49.246;9.100;2023-05-23T09:39:49;98806.56;;;20.61;77.61
14120;BME280;7138;49.246;9.100;2023-05-23T09:42:20;98809.53;;;20.76;77.95
14120;BME280;7138;49.246;9.100;2023-05-23T09:44:49;98805.47;;;20.89;81.56
14120;BME280;7138;49.246;9.100;2023-05-23T09:47:16;98807.13;;;21.13;79.92
14120;BME280;7138;49.246;9.100;2023-05-23T09:49:42;98805.06;;;21.41;78.99
14120;BME280;7138;49.246;9.100;2023-05-23T09:52:09;98802.69;;;21.75;81.06
14120;BME280;7138;49.246;9.100;2023-05-23T09:54:35;98801.50;;;22.03;75.19
14120;BME280;7138;49.246;9.100;2023-05-23T09:57:02;98801.94;;;22.31;74.99
14120;BME280;7138;49.246;9.100;2023-05-23T09:59:37;98797.00;;;22.61;74.69
14120;BME280;7138;49.246;9.100;2023-05-23T10:02:06;98793.78;;;22.92;72.73
14120;BME280;7138;49.246;9.100;2023-05-23T10:04:34;98801.94;;;23.04;69.92
14120;BME280;7138;49.246;9.100;2023-05-23T10:07:11;98814.50;;;23.16;70.51
14120;BME280;7138;49.246;9.100;2023-05-23T10:09:42;98803.53;;;23.25;71.44
14120;BME280;7138;49.246;9.100;2023-05-23T10:12:38;98807.91;;;23.44;70.91
14120;BME280;7138;49.246;9.100;2023-05-23T10:15:08;98808.69;;;23.46;71.30
14120;BME280;7138;49.246;9.100;2023-05-23T10:17:51;98808.91;;;23.58;70.72
14120;BME280;7138;49.246;9.100;2023-05-23T10:20:24;98812.88;;;23.50;69.68
14120;BME280;7138;49.246;9.100;2023-05-23T10:22:51;98811.97;;;23.32;70.79
14120;BME280;7138;49.246;9.100;2023-05-23T10:25:17;98802.41;;;23.29;71.18
14120;BME280;7138;49.246;9.100;2023-05-23T10:27:44;98808.13;;;23.39;69.86
14120;BME280;7138;49.246;9.100;2023-05-23T10:30:15;98804.84;;;23.34;70.88
14120;BME280;7138;49.246;9.100;2023-05-23T10:32:41;98806.28;;;23.22;70.48
14120;BME280;7138;49.246;9.100;2023-05-23T10:35:17;98804.34;;;23.26;nan
14120;BME280;7138;49.246;9.100;2023-05-23T10:37:55;98813.06;;;23.28;70.95
14120;BME280;7138;49.246;9.100;2023-05-23T10:40:33;98815.22;;;23.03;69.16
14120;BME280;7138;49.246;9.100;2023-05-23T10:43:12;98806.38;;;23.04;70.55
14120;BME280;7138;49.246;9.100;2023-05-23T10:45:42;98813.34;;;23.05;70.96
14120;BME280;7138;49.246;9.100;2023-05-23T10:48:20;98815.63;;;23.12;70.74
14120;BME280;7138;49.246;9.100;2023-05-23T10:51:02;98818.47;;;23.08;70.98
14120;BME280;7138;49.246;9.100;2023-05-23T10:53:35;98816.53;;;23.11;72.04
14120;BME280;7138;49.246;9.100;2023-05-23T10:56:03;98817.84;;;23.20;72.18
14120;BME280;7138;49.246;9.100;2023-05-23T10:58:31;98820.66;;;23.17;71.83
14120;BME280;7138;49.246;9.100;2023-05-23T11:01:02;98809.00;;;23.04;70.74
14120;BME280;7138;49.246;9.100;2023-05-23T11:03:35;98810.94;;;23.00;70.30
14120;BME280;7138;49.246;9.100;2023-05-23T11:06:02;98810.69;;;23.05;71.97
14120;BME280;7138;49.246;9.100;2023-05-23T11:08:37;98806.53;;;23.18;70.67
14120;BME280;7138;49.246;9.100;2023-05-23T11:11:04;98807.44;;;23.17;70.52
14120;BME280;7138;49.246;9.100;2023-05-23T11:13:57;98808.09;;;23.22;70.11
14120;BME280;7138;49.246;9.100;2023-05-23T11:16:31;98806.22;;;23.24;72.73
14120;BME280;7138;49.246;9.100;2023-05-23T11:19:23;98812.50;;;23.21;71.64
14120;BME280;7138;49.246;9.100;2023-05-23T11:21:57;98801.09;;;23.21;71.07
14120;BME280;7138;49.246;9.100;2023-05-23T11:24:47;98810.09;;;23.17;69.92
14120;BME280;7138;49.246;9.100;2023-05-23T11:27:14;98813.69;;;23.16;70.31
14120;BME280;7138;49.246;9.100;2023-05-23T11:29:40;98812.41;;;23.23;70.76
14120;BME280;7138;49.246;9.100;2023-05-23T11:32:11;98811.28;;;23.28;72.86
14120;BME280;7138;49.246;9.100;2023-05-23T11:34:38;98815.25;;;23.37;70.71
14120;BME280;7138;49.246;9.100;2023-05-23T11:37:04;98817.66;;;23.42;68.87
14120;BME280;7138;49.246;9.100;2023-05-23T11:39:30;98816.59;;;23.46;69.08
14120;BME280;7138;49.246;9.100;2023-05-23T11:41:59;98824.03;;;23.37;69.04
14120;BME280;7138;49.246;9.100;2023-05-23T11:44:25;98820.19;;;23.26;68.95
14120;BME280;7138;49.246;9.100;2023-05-23T11:47:02;98822.97;;;23.23;69.71
14120;BME280;7138;49.246;9.100;2023-05-23T11:49:32;98818.81;;;23.19;69.83
14120;BME280;7138;49.246;9.100;2023-05-23T11:52:00;98815.38;;;23.17;70.49
14120;BME280;7138;49.246;9.100;2023-05-23T11:54:26;98816.47;;;23.13;70.72
14120;BME280;7138;49.246;9.100;2023-05-23T11:56:53;98818.41;;;23.09;70.38
14120;BME280;7138;49.246;9.100;2023-05-23T11:59:20;98816.13;;;23.02;69.47
14120;BME280;7138;49.246;9.100;2023-05-23T12:01:46;98816.22;;;23.00;69.54
14120;BME280;7138;49.246;9.100;2023-05-23T12:04:12;98814.44;;;23.01;69.45
14120;BME280;7138;49.246;9.100;2023-05-23T12:06:40;98821.13;;;22.89;69.24
14120;BME280;7138;49.246;9.100;2023-05-23T12:09:06;98815.47;;;22.79;69.45
14120;BME280;7138;49.246;9.100;2023-05-23T12:11:33;98816.84;;;22.69;70.02
14120;BME280;7138;49.246;9.100;2023-05-23T12:14:00;98815.91;;;22.70;71.09
14120;BME280;7138;49.246;9.100;2023-05-23T12:16:28;98802.72;;;22.52;70.30
14120;BME280;7138;49.246;9.100;2023-05-23T12:18:54;98817.53;;;22.54;70.67
14120;BME280;7138;49.246;9.100;2023-05-23T12:21:24;98810.41;;;22.56;71.42
14120;BME280;7138;49.246;9.100;2023-05-23T12:23:52;98818.25;;;22.58;71.05
14120;BME280;7138;49.246;9.100;2023-05-23T12:26:18;98820.78;;;22.59;70.99
14120;BME280;7138;49.246;9.100;2023-05-23T12:28:44;98810.25;;;22.59;70.88
14120;BME280;7138;49.246;9.100;2023-05-23T12:31:12;98807.47;;;22.62;72.08
14120;BME280;7138;49.246;9.100;2023-05-23T12:33:38;98813.88;;;22.57;70.20
14120;BME280;7138;49.246;9.100;2023-05-23T12:36:05;98815.13;;;22.68;71.75
14120;BME280;7138;49.246;9.100;2023-05-23T12:38:32;98816.91;;;22.68;70.58
14120;BME280;7138;49.246;9.100;2023-05-23T12:41:11;98818.03;;;22.81;72.33
14120;BME280;7138;49.246;9.100;2023-05-23T12:43:38;98815.66;;;22.94;73.02
14120;BME280;7138;49.246;9.100;2023-05-23T12:46:04;98811.81;;;23.01;72.21
14120;BME280;7138;49.246;9.100;2023-05-23T12:48:30;98810.69;;;22.88;71.56
14120;BME280;7138;49.246;9.100;2023-05-23T12:50:56;98811.81;;;23.01;72.11
14120;BME280;7138;49.246;9.100;2023-05-23T12:53:22;98817.25;;;23.15;70.81
14120;BME280;7138;49.246;9.100;2023-05-23T12:55:48;98808.56;;;23.13;69.81
14120;BME280;7138;49.246;9.100;2023-05-23T12:58:15;98815.31;;;23.18;71.74
14120;BME280;7138;49.246;9.100;2023-05-23T13:00:41;98801.25;;;23.18;68.93
14120;BME280;7138;49.246;9.100;2023-05-23T13:03:07;98808.94;;;23.22;69.65
14120;BME280;7138;49.246;9.100;2023-05-23T13:05:34;98795.31;;;23.31;70.48
14120;BME280;7138;49.246;9.100;2023-05-23T13:07:59;98804.25;;;23.46;70.95
14120;BME280;7138;49.246;9.100;2023-05-23T13:10:26;98799.91;;;23.45;69.27